createdAt,value
2023-02-27T00:00:15.231Z,6.10
2023-02-27T00:04:18.702Z,6.00
2023-02-27T00:08:28.461Z,6.00
2023-02-27T00:18:14.820Z,6.00
2023-02-27T00:22:45.545Z,6.00
2023-02-27T00:27:16.586Z,6.00
2023-02-27T00:31:46.915Z,5.90
2023-02-27T00:36:16.671Z,5.90
2023-02-27T00:40:46.932Z,5.90
2023-02-27T00:44:50.049Z,5.90
2023-02-27T00:49:20.061Z,5.90
2023-02-27T00:53:24.631Z,5.90
2023-02-27T00:57:27.755Z,5.90
2023-02-27T01:01:56.546Z,5.90
2023-02-27T01:06:02.330Z,6.00
2023-02-27T01:10:58.683Z,6.00
2023-02-27T01:15:28.607Z,6.00
2023-02-27T01:19:35.976Z,6.00
2023-02-27T01:23:47.239Z,6.00
2023-02-27T01:28:17.285Z,6.00
2023-02-27T01:33:19.565Z,6.00
2023-02-27T01:37:48.855Z,6.00
2023-02-27T01:42:18.769Z,6.00
2023-02-27T01:46:48.682Z,6.00
2023-02-27T01:51:19.482Z,6.00
2023-02-27T01:55:48.779Z,6.00
2023-02-27T02:00:23.708Z,6.00
2023-02-27T02:11:05.392Z,6.00
2023-02-27T03:13:04.953Z,5.60
2023-02-27T03:36:38.626Z,5.50
2023-02-27T03:41:08.522Z,5.50
2023-02-27T04:37:41.471Z,5.30
2023-02-27T04:42:11.644Z,5.30
2023-02-27T04:46:41.629Z,5.40
2023-02-27T05:16:55.990Z,5.50
2023-02-27T05:21:14.024Z,5.50
2023-02-27T05:32:38.878Z,5.60
2023-02-27T05:37:08.713Z,5.60
2023-02-27T05:54:40.751Z,5.50
2023-02-27T05:59:13.197Z,5.50
2023-02-27T06:04:10.533Z,5.50
2023-02-27T06:08:41.204Z,5.50
2023-02-27T06:12:49.144Z,5.50
2023-02-27T06:17:18.691Z,5.50
2023-02-27T06:21:48.823Z,5.50
2023-02-27T06:26:20.587Z,5.50
2023-02-27T06:30:51.845Z,5.50
2023-02-27T07:46:47.868Z,5.60
2023-02-27T08:48:44.813Z,6.00
2023-02-27T09:50:05.000Z,7.10
2023-02-27T10:00:49.632Z,7.50
2023-02-27T10:05:01.543Z,7.60
2023-02-27T10:09:12.679Z,7.80
2023-02-27T10:13:34.118Z,7.90
2023-02-27T10:18:30.462Z,7.90
2023-02-27T10:22:38.028Z,7.90
2023-02-27T10:26:42.933Z,7.90
2023-02-27T10:31:40.030Z,8.00
2023-02-27T10:36:20.718Z,7.90
2023-02-27T10:41:25.969Z,7.90
2023-02-27T10:45:55.634Z,7.90
2023-02-27T10:50:25.691Z,7.90
2023-02-27T10:54:28.773Z,8.00
2023-02-27T10:58:57.731Z,8.00
2023-02-27T11:54:49.561Z,8.00
2023-02-27T11:59:21.099Z,7.90
2023-02-27T12:03:35.531Z,8.00
2023-02-27T12:08:18.698Z,8.00
2023-02-27T12:12:40.474Z,8.00
2023-02-27T12:16:51.238Z,8.00
2023-02-27T12:21:09.809Z,8.10
2023-02-27T12:25:21.171Z,8.30
2023-02-27T12:29:44.070Z,8.40
2023-02-27T12:33:55.134Z,8.50
2023-02-27T12:37:59.859Z,8.60
2023-02-27T12:42:28.628Z,8.60
2023-02-27T13:44:41.497Z,9.10
2023-02-27T13:49:14.682Z,9.00
2023-02-27T14:12:58.714Z,8.90
2023-02-27T15:15:18.175Z,8.50
2023-02-27T16:24:29.724Z,8.20
2023-02-27T16:29:00.197Z,8.30
2023-02-27T17:24:35.472Z,6.60
2023-02-27T17:41:18.501Z,6.50
2023-02-27T17:45:47.548Z,6.50
2023-02-27T18:28:28.100Z,6.40
2023-02-27T19:10:40.879Z,6.00
2023-02-27T19:15:09.599Z,6.00
2023-02-27T19:19:42.458Z,6.00
2023-02-27T19:30:09.524Z,5.90
